createdAt,value
2019-06-07T00:01:24.108Z,47.50
2019-06-07T00:03:55.874Z,46.90
2019-06-07T00:06:27.680Z,46.60
2019-06-07T00:09:00.409Z,47.00
2019-06-07T00:11:32.097Z,47.30
2019-06-07T00:14:03.816Z,47.30
2019-06-07T00:16:35.533Z,47.40
2019-06-07T00:19:07.269Z,47.50
2019-06-07T00:22:13.562Z,47.60
2019-06-07T00:24:14.060Z,47.50
2019-06-07T00:26:57.741Z,47.30
2019-06-07T00:29:21.757Z,47.30
2019-06-07T00:31:52.559Z,47.20
2019-06-07T00:34:25.095Z,47.20
2019-06-07T00:36:56.862Z,47.10
2019-06-07T00:39:28.672Z,47.30
2019-06-07T00:42:00.448Z,47.60
2019-06-07T00:44:33.959Z,47.60
2019-06-07T00:47:05.615Z,47.60
2019-06-07T00:49:41.389Z,47.70
2019-06-07T00:52:18.546Z,47.70
2019-06-07T00:54:44.093Z,47.60
2019-06-07T00:57:16.715Z,47.60
2019-06-07T00:59:49.373Z,47.70
2019-06-07T01:02:25.730Z,47.60
2019-06-07T01:04:54.424Z,47.70
2019-06-07T01:07:26.084Z,47.80
2019-06-07T01:09:57.844Z,47.80
2019-06-07T01:12:30.611Z,48.00
2019-06-07T01:15:02.290Z,48.40
2019-06-07T01:17:43.611Z,48.70
2019-06-07T01:20:09.448Z,49.00
2019-06-07T01:22:41.105Z,48.90
2019-06-07T01:25:15.626Z,49.10
2019-06-07T01:27:47.512Z,49.20
2019-06-07T01:30:24.186Z,49.30
2019-06-07T01:32:53.430Z,49.40
2019-06-07T01:35:25.648Z,49.40
2019-06-07T01:37:57.361Z,49.50
2019-06-07T01:40:32.409Z,49.60
2019-06-07T01:43:02.523Z,49.80
2019-06-07T01:45:34.193Z,49.90
2019-06-07T01:48:06.015Z,50.10
2019-06-07T01:50:37.768Z,50.10
2019-06-07T01:53:09.465Z,50.40
2019-06-07T01:55:42.590Z,50.40
2019-06-07T01:58:14.447Z,50.40
2019-06-07T02:00:46.441Z,50.60
2019-06-07T02:03:18.672Z,50.80
2019-06-07T02:05:51.436Z,50.70
2019-06-07T02:08:24.508Z,50.60
2019-06-07T02:10:56.418Z,50.70
2019-06-07T02:13:30.597Z,50.90
2019-06-07T02:16:01.448Z,51.00
2019-06-07T02:18:34.915Z,51.10
2019-06-07T02:21:06.540Z,51.10
2019-06-07T02:23:38.417Z,51.10
2019-06-07T02:26:10.133Z,51.10
2019-06-07T02:28:45.525Z,51.10
2019-06-07T02:31:15.227Z,51.40
2019-06-07T02:33:47.013Z,51.30
2019-06-07T02:36:24.749Z,51.30
2019-06-07T02:38:53.471Z,51.40
2019-06-07T02:41:28.546Z,51.50
2019-06-07T02:43:59.029Z,51.50
2019-06-07T02:46:42.510Z,51.40
2019-06-07T02:49:04.162Z,51.60
2019-06-07T02:51:41.356Z,51.50
2019-06-07T02:54:09.360Z,51.50
2019-06-07T02:56:56.810Z,51.30
2019-06-07T02:59:14.399Z,51.30
2019-06-07T03:01:47.636Z,51.20
2019-06-07T03:04:19.704Z,51.20
2019-06-07T03:06:53.527Z,51.30
2019-06-07T03:09:26.397Z,51.10
2019-06-07T03:12:01.071Z,51.00
2019-06-07T03:14:36.986Z,51.00
2019-06-07T03:17:45.965Z,51.10
2019-06-07T03:20:20.657Z,51.20
2019-06-07T03:22:53.195Z,51.00
2019-06-07T03:25:26.295Z,51.00
2019-06-07T03:27:58.098Z,51.20
2019-06-07T03:30:52.230Z,51.80
2019-06-07T03:33:03.280Z,51.20
2019-06-07T03:35:37.353Z,51.20
2019-06-07T03:38:08.447Z,51.60
2019-06-07T03:40:41.659Z,51.30
2019-06-07T03:43:13.309Z,51.20
2019-06-07T03:45:46.473Z,51.20
2019-06-07T03:48:19.915Z,51.20
2019-06-07T03:51:04.206Z,51.20
2019-06-07T03:53:24.996Z,51.10
2019-06-07T03:55:56.654Z,51.40
2019-06-07T03:58:31.788Z,50.80
2019-06-07T04:01:02.272Z,50.90
2019-06-07T04:03:45.525Z,50.90
2019-06-07T04:06:07.464Z,50.90
2019-06-07T04:08:42.082Z,50.80
2019-06-07T04:11:12.655Z,51.00
2019-06-07T04:13:44.353Z,51.00
2019-06-07T04:16:16.103Z,50.90
2019-06-07T04:18:47.828Z,50.90
2019-06-07T04:21:19.540Z,50.90
2019-06-07T04:23:51.314Z,51.10
2019-06-07T04:26:23.073Z,51.00
2019-06-07T04:29:31.768Z,50.90
2019-06-07T04:31:28.414Z,51.00
2019-06-07T04:34:00.102Z,50.90
2019-06-07T04:36:45.557Z,50.90
2019-06-07T04:39:09.402Z,51.20
2019-06-07T04:41:45.986Z,51.10
2019-06-07T04:44:19.293Z,51.00
2019-06-07T04:46:54.158Z,51.00
2019-06-07T04:49:27.202Z,51.10
2019-06-07T04:52:00.163Z,51.10
2019-06-07T04:54:37.341Z,51.10
2019-06-07T04:57:07.819Z,51.20
2019-06-07T05:00:10.981Z,51.20
2019-06-07T05:02:14.838Z,51.60
2019-06-07T05:04:48.068Z,51.20
2019-06-07T05:07:19.793Z,51.20
2019-06-07T05:09:51.472Z,51.20
2019-06-07T05:12:23.288Z,51.30
2019-06-07T05:14:54.966Z,51.30
2019-06-07T05:17:26.680Z,51.20
2019-06-07T05:19:59.668Z,51.60
2019-06-07T05:22:34.043Z,51.30
2019-06-07T05:25:04.832Z,51.40
2019-06-07T05:27:39.247Z,51.40
2019-06-07T05:30:36.532Z,51.50
2019-06-07T05:32:51.801Z,51.40
2019-06-07T05:35:25.284Z,51.50
2019-06-07T05:37:58.500Z,51.40
2019-06-07T05:40:41.930Z,51.30
2019-06-07T05:43:25.074Z,51.50
2019-06-07T05:46:01.126Z,51.50
2019-06-07T05:48:34.295Z,51.50
2019-06-07T05:51:10.277Z,51.50
2019-06-07T05:53:43.135Z,51.60
2019-06-07T05:56:17.245Z,51.60
2019-06-07T05:58:49.447Z,51.70
2019-06-07T06:03:54.607Z,51.60
2019-06-07T06:06:26.351Z,51.50
2019-06-07T06:09:13.244Z,52.00
2019-06-07T06:11:45.941Z,51.30
2019-06-07T06:14:08.154Z,51.10
2019-06-07T06:16:39.758Z,51.20
2019-06-07T06:19:11.985Z,51.20
2019-06-07T06:21:46.328Z,51.20
2019-06-07T06:24:17.102Z,51.10
2019-06-07T06:26:54.852Z,51.40
2019-06-07T06:29:22.380Z,50.90
2019-06-07T06:32:39.524Z,50.90
2019-06-07T06:34:27.682Z,50.70
2019-06-07T06:36:59.430Z,50.60
2019-06-07T06:39:32.944Z,50.80
2019-06-07T06:42:06.428Z,50.60
2019-06-07T06:44:40.767Z,50.60
2019-06-07T06:47:14.683Z,50.30
2019-06-07T06:49:49.140Z,50.60
2019-06-07T06:52:19.833Z,50.10
2019-06-07T06:55:00.124Z,49.80
2019-06-07T06:57:24.958Z,49.60
2019-06-07T06:59:56.723Z,49.20
2019-06-07T07:02:28.602Z,49.20
2019-06-07T07:05:00.395Z,49.30
2019-06-07T07:07:33.225Z,49.50
2019-06-07T07:10:08.618Z,49.80
2019-06-07T07:12:40.673Z,49.20
2019-06-07T07:15:18.386Z,49.10
2019-06-07T07:18:03.746Z,49.00
2019-06-07T07:20:26.342Z,49.10
2019-06-07T07:22:58.107Z,48.80
2019-06-07T07:25:29.858Z,48.60
2019-06-07T07:28:02.019Z,48.10
2019-06-07T07:30:55.321Z,48.30
2019-06-07T07:34:20.125Z,48.10
2019-06-07T07:36:28.141Z,47.90
2019-06-07T07:38:48.971Z,48.00
2019-06-07T07:41:19.770Z,48.20
2019-06-07T07:44:05.256Z,48.00
2019-06-07T07:46:30.156Z,48.00
2019-06-07T07:49:03.383Z,47.70
2019-06-07T07:51:36.927Z,47.60
2019-06-07T07:54:11.895Z,47.90
2019-06-07T07:56:47.508Z,47.80
2019-06-07T07:59:20.576Z,47.50
2019-06-07T08:01:55.805Z,47.10
2019-06-07T08:05:13.091Z,47.10
2019-06-07T08:07:08.169Z,47.40
2019-06-07T08:09:42.549Z,47.10
2019-06-07T08:12:15.992Z,47.10
2019-06-07T08:14:51.208Z,47.10
2019-06-07T08:17:24.172Z,47.20
2019-06-07T08:19:57.625Z,47.00
2019-06-07T08:22:30.311Z,46.80
2019-06-07T08:25:04.372Z,46.70
2019-06-07T08:27:36.268Z,46.30
2019-06-07T08:30:47.089Z,46.10
2019-06-07T08:32:52.643Z,46.00
2019-06-07T08:36:03.254Z,45.40
2019-06-07T08:40:34.029Z,45.20
2019-06-07T08:43:18.165Z,45.40
2019-06-07T08:45:44.713Z,45.30
2019-06-07T08:48:27.573Z,45.10
2019-06-07T08:50:56.962Z,45.60
2019-06-07T08:53:28.246Z,44.80
2019-06-07T08:56:08.938Z,45.00
2019-06-07T08:58:35.404Z,44.90
2019-06-07T09:01:09.334Z,45.00
2019-06-07T09:03:41.455Z,44.60
2019-06-07T09:07:01.140Z,45.00
2019-06-07T09:08:51.978Z,44.70
2019-06-07T09:11:28.403Z,44.70
2019-06-07T09:14:08.703Z,45.00
2019-06-07T09:16:36.614Z,44.10
2019-06-07T09:19:10.905Z,44.00
2019-06-07T09:21:43.656Z,44.50
2019-06-07T09:24:18.546Z,44.10
2019-06-07T09:26:51.903Z,44.10
2019-06-07T09:29:24.609Z,43.80
2019-06-07T09:32:04.726Z,43.80
2019-06-07T09:34:35.443Z,43.90
2019-06-07T09:38:03.061Z,43.90
2019-06-07T09:39:46.236Z,43.60
2019-06-07T09:42:19.916Z,43.50
2019-06-07T09:44:52.041Z,43.10
2019-06-07T09:47:32.451Z,43.00
2019-06-07T09:50:04.048Z,43.10
2019-06-07T09:52:30.656Z,43.10
2019-06-07T09:55:09.218Z,42.10
2019-06-07T09:57:35.939Z,42.60
2019-06-07T10:00:38.659Z,42.10
2019-06-07T10:02:49.559Z,42.40
2019-06-07T10:05:22.802Z,42.50
2019-06-07T10:08:07.514Z,42.30
2019-06-07T10:10:35.321Z,42.70
2019-06-07T10:13:01.785Z,42.10
2019-06-07T10:15:35.011Z,42.60
2019-06-07T10:18:07.173Z,43.00
2019-06-07T10:20:39.721Z,43.20
2019-06-07T10:23:11.507Z,43.30
2019-06-07T10:25:43.248Z,43.70
2019-06-07T10:28:18.634Z,43.50
2019-06-07T10:30:52.565Z,43.50
2019-06-07T10:33:27.513Z,42.80
2019-06-07T10:36:02.892Z,43.00
2019-06-07T10:38:39.883Z,42.20
2019-06-07T10:41:15.716Z,41.30
2019-06-07T10:43:48.255Z,40.40
2019-06-07T10:46:20.657Z,40.40
2019-06-07T10:48:57.577Z,39.80
2019-06-07T10:51:31.617Z,39.20
2019-06-07T10:54:19.961Z,39.00
2019-06-07T10:56:40.194Z,38.70
2019-06-07T10:59:13.677Z,38.00
2019-06-07T11:01:47.592Z,37.80
2019-06-07T11:04:19.949Z,37.60
2019-06-07T11:06:53.292Z,36.80
2019-06-07T11:09:25.621Z,36.50
2019-06-07T11:11:57.921Z,36.30
2019-06-07T11:14:30.204Z,35.30
2019-06-07T11:17:02.756Z,35.00
2019-06-07T11:19:35.079Z,34.80
2019-06-07T11:22:08.021Z,35.10
2019-06-07T11:24:40.478Z,34.70
2019-06-07T11:27:14.202Z,34.90
2019-06-07T11:29:48.087Z,34.60
2019-06-07T11:32:20.469Z,34.00
2019-06-07T11:34:52.708Z,34.00
2019-06-07T11:37:25.029Z,34.10
2019-06-07T11:39:57.370Z,33.40
2019-06-07T11:42:31.084Z,32.90
2019-06-07T11:45:03.899Z,33.30
2019-06-07T11:47:36.300Z,33.80
2019-06-07T11:50:11.802Z,32.70
2019-06-07T11:52:46.425Z,32.30
2019-06-07T11:55:19.144Z,32.00
2019-06-07T11:57:52.635Z,30.80
2019-06-07T12:00:25.912Z,31.20
2019-06-07T12:02:58.248Z,30.90
2019-06-07T12:05:30.517Z,30.90
2019-06-07T12:08:03.037Z,30.90
2019-06-07T12:10:42.417Z,30.60
2019-06-07T12:13:10.424Z,30.20
2019-06-07T12:15:43.983Z,29.50
2019-06-07T12:18:17.352Z,29.50
2019-06-07T12:20:49.830Z,29.60
2019-06-07T12:23:22.133Z,28.70
2019-06-07T12:25:54.529Z,27.70
2019-06-07T12:28:26.823Z,27.50
2019-06-07T12:30:59.087Z,27.50
2019-06-07T12:33:33.305Z,28.00
2019-06-07T12:36:06.038Z,28.40
2019-06-07T12:38:38.351Z,28.60
2019-06-07T12:41:12.002Z,28.10
2019-06-07T12:43:44.534Z,28.20
2019-06-07T12:46:21.090Z,27.50
2019-06-07T12:48:50.898Z,27.70
2019-06-07T12:51:23.546Z,27.60
2019-06-07T12:53:56.035Z,27.60
2019-06-07T12:56:28.413Z,27.20
2019-06-07T12:59:00.798Z,26.80
2019-06-07T13:01:33.250Z,26.80
2019-06-07T13:04:05.997Z,27.10
2019-06-07T13:06:38.379Z,26.10
2019-06-07T13:09:10.678Z,26.80
2019-06-07T13:11:44.440Z,26.70
2019-06-07T13:14:17.774Z,26.50
2019-06-07T13:16:51.710Z,25.70
2019-06-07T13:19:24.433Z,26.00
2019-06-07T13:21:58.299Z,25.20
2019-06-07T13:24:30.670Z,25.50
2019-06-07T13:27:03.012Z,25.50
2019-06-07T13:29:35.317Z,25.40
2019-06-07T13:32:07.723Z,25.50
2019-06-07T13:34:39.982Z,24.50
2019-06-07T13:37:12.427Z,24.10
2019-06-07T13:39:44.812Z,23.80
2019-06-07T13:42:18.321Z,23.70
2019-06-07T13:44:50.810Z,23.90
2019-06-07T13:47:23.217Z,24.10
2019-06-07T13:49:55.697Z,24.30
2019-06-07T13:52:27.975Z,24.50
2019-06-07T13:55:02.285Z,24.80
2019-06-07T13:57:34.340Z,25.10
2019-06-07T14:00:10.717Z,25.30
2019-06-07T14:02:43.101Z,25.80
2019-06-07T14:05:16.035Z,26.20
2019-06-07T14:07:48.307Z,26.40
2019-06-07T14:10:21.649Z,26.70
2019-06-07T14:12:54.045Z,26.80
2019-06-07T14:15:26.583Z,26.90
2019-06-07T14:18:00.680Z,27.10
2019-06-07T14:20:34.679Z,27.30
2019-06-07T14:23:07.173Z,27.50
2019-06-07T14:25:58.530Z,27.80
2019-06-07T14:28:32.832Z,28.10
2019-06-07T14:31:04.987Z,28.10
2019-06-07T14:33:36.818Z,28.30
2019-06-07T14:36:11.120Z,28.40
2019-06-07T14:38:42.989Z,29.30
2019-06-07T14:41:18.306Z,28.80
2019-06-07T14:43:50.603Z,28.90
2019-06-07T14:46:23.824Z,29.10
2019-06-07T14:48:55.568Z,29.20
2019-06-07T14:51:28.334Z,29.20
2019-06-07T14:54:00.941Z,29.50
2019-06-07T14:56:35.322Z,29.50
2019-06-07T14:59:07.909Z,29.50
2019-06-07T15:01:40.818Z,29.50
2019-06-07T15:04:13.373Z,29.50
2019-06-07T15:06:45.164Z,29.50
2019-06-07T15:09:17.462Z,29.30
2019-06-07T15:11:49.207Z,29.30
2019-06-07T15:14:21.024Z,29.10
2019-06-07T15:16:52.805Z,29.00
2019-06-07T15:19:24.590Z,29.10
2019-06-07T15:21:56.379Z,29.10
2019-06-07T15:24:34.435Z,29.10
2019-06-07T15:27:05.076Z,29.10
2019-06-07T15:29:38.787Z,29.40
2019-06-07T15:32:10.696Z,29.90
2019-06-07T15:34:43.020Z,30.00
2019-06-07T15:37:15.320Z,30.30
2019-06-07T15:39:47.053Z,30.80
2019-06-07T15:42:19.636Z,31.40
2019-06-07T15:44:51.905Z,32.70
2019-06-07T15:47:24.304Z,34.10
2019-06-07T15:49:55.992Z,34.60
2019-06-07T15:52:28.993Z,35.20
2019-06-07T15:55:00.707Z,35.50
2019-06-07T15:57:33.341Z,35.70
2019-06-07T16:00:07.062Z,36.50
2019-06-07T16:02:39.727Z,37.80
2019-06-07T16:05:13.400Z,37.80
2019-06-07T16:07:47.576Z,39.00
2019-06-07T16:10:24.831Z,39.70
2019-06-07T16:13:00.664Z,40.00
2019-06-07T16:15:33.239Z,40.40
2019-06-07T16:18:08.046Z,41.20
2019-06-07T16:20:41.373Z,41.40
2019-06-07T16:23:15.143Z,42.00
2019-06-07T16:25:47.267Z,42.80
2019-06-07T16:28:20.666Z,43.10
2019-06-07T16:30:52.625Z,43.20
2019-06-07T16:33:24.491Z,42.70
2019-06-07T16:35:57.786Z,42.50
2019-06-07T16:38:29.814Z,42.70
2019-06-07T16:41:01.546Z,42.80
2019-06-07T16:43:33.534Z,42.40
2019-06-07T16:46:05.611Z,42.70
2019-06-07T16:48:38.677Z,42.40
2019-06-07T16:51:10.607Z,42.40
2019-06-07T16:53:42.477Z,42.70
2019-06-07T16:56:15.514Z,43.20
2019-06-07T16:58:48.810Z,43.40
2019-06-07T17:01:20.819Z,43.30
2019-06-07T17:03:52.630Z,43.40
2019-06-07T17:06:24.490Z,43.10
2019-06-07T17:08:57.542Z,42.70
2019-06-07T17:11:29.397Z,43.10
2019-06-07T17:14:01.167Z,42.30
2019-06-07T17:16:33.093Z,42.20
2019-06-07T17:19:04.989Z,42.30
2019-06-07T17:21:36.744Z,42.80
2019-06-07T17:24:08.832Z,42.60
2019-06-07T17:26:41.597Z,42.10
2019-06-07T17:29:13.605Z,42.60
2019-06-07T17:31:48.229Z,42.00
2019-06-07T17:34:21.771Z,42.40
2019-06-07T17:36:55.345Z,42.20
2019-06-07T17:39:30.088Z,42.00
2019-06-07T17:42:02.604Z,41.80
2019-06-07T17:44:34.794Z,42.10
2019-06-07T17:47:06.757Z,42.00
2019-06-07T17:49:38.544Z,42.30
2019-06-07T17:52:10.352Z,42.00
2019-06-07T17:54:43.880Z,41.70
2019-06-07T17:57:15.838Z,41.50
2019-06-07T17:59:48.550Z,41.70
2019-06-07T18:02:20.426Z,41.30
2019-06-07T18:04:53.533Z,41.10
2019-06-07T18:07:27.684Z,41.10
2019-06-07T18:10:00.080Z,41.00
2019-06-07T18:12:34.611Z,40.90
2019-06-07T18:15:07.455Z,41.00
2019-06-07T18:17:39.320Z,41.10
2019-06-07T18:20:13.076Z,41.10
2019-06-07T18:22:45.099Z,41.10
2019-06-07T18:25:20.470Z,41.10
2019-06-07T18:27:54.670Z,40.70
2019-06-07T18:30:26.480Z,41.20
2019-06-07T18:32:59.253Z,41.30
2019-06-07T18:35:31.331Z,41.10
2019-06-07T18:38:10.770Z,41.30
2019-06-07T18:40:44.507Z,41.40
2019-06-07T18:43:17.742Z,41.20
2019-06-07T18:45:49.480Z,41.50
2019-06-07T18:48:25.552Z,41.40
2019-06-07T18:50:59.162Z,41.50
2019-06-07T18:53:36.694Z,41.50
2019-06-07T18:56:15.183Z,41.50
2019-06-07T18:58:49.117Z,41.50
2019-06-07T19:01:22.129Z,41.20
2019-06-07T19:03:56.152Z,41.00
2019-06-07T19:06:28.047Z,41.00
2019-06-07T19:09:01.248Z,40.90
2019-06-07T19:11:35.863Z,40.80
2019-06-07T19:14:07.661Z,40.50
2019-06-07T19:16:39.485Z,40.50
2019-06-07T19:19:11.246Z,40.40
2019-06-07T19:21:47.429Z,40.30
2019-06-07T19:24:21.757Z,40.20
2019-06-07T19:26:54.471Z,40.10
2019-06-07T19:29:26.329Z,40.00
2019-06-07T19:31:59.071Z,40.00
2019-06-07T19:34:31.051Z,40.00
2019-06-07T19:37:03.169Z,39.60
2019-06-07T19:39:36.203Z,39.60
2019-06-07T19:42:09.734Z,39.50
2019-06-07T19:44:53.167Z,39.40
2019-06-07T19:47:15.100Z,39.20
2019-06-07T19:49:47.339Z,39.00
2019-06-07T19:52:19.123Z,39.10
2019-06-07T19:54:51.054Z,38.90
2019-06-07T19:57:22.815Z,39.20
2019-06-07T19:59:55.437Z,39.10
2019-06-07T20:02:27.323Z,39.00
2019-06-07T20:05:02.041Z,39.10
2019-06-07T20:07:32.490Z,39.10
2019-06-07T20:10:04.887Z,39.10
2019-06-07T20:12:36.782Z,39.10
2019-06-07T20:15:27.260Z,39.00
2019-06-07T20:17:42.989Z,38.90
2019-06-07T20:20:35.236Z,38.90
2019-06-07T20:23:07.221Z,38.80
2019-06-07T20:25:40.242Z,38.90
2019-06-07T20:28:15.910Z,38.90
2019-06-07T20:30:54.897Z,39.00
2019-06-07T20:33:27.975Z,39.00
2019-06-07T20:36:02.745Z,39.00
2019-06-07T20:38:34.715Z,39.10
2019-06-07T20:41:07.465Z,39.00
2019-06-07T20:43:41.428Z,39.10
2019-06-07T20:46:16.535Z,39.10
2019-06-07T20:48:54.673Z,39.20
2019-06-07T20:51:29.044Z,39.20
2019-06-07T20:54:02.585Z,39.40
2019-06-07T20:56:38.907Z,39.30
2019-06-07T20:59:11.793Z,39.30
2019-06-07T21:01:43.610Z,39.40
2019-06-07T21:04:17.416Z,39.40
2019-06-07T21:06:51.883Z,39.50
2019-06-07T21:09:30.882Z,40.00
2019-06-07T21:12:05.878Z,39.50
2019-06-07T21:14:38.898Z,39.50
2019-06-07T21:17:10.781Z,39.60
2019-06-07T21:19:47.841Z,39.60
2019-06-07T21:22:22.263Z,40.40
2019-06-07T21:24:57.097Z,39.90
2019-06-07T21:27:32.152Z,39.90
2019-06-07T21:30:05.126Z,40.00
2019-06-07T21:32:36.914Z,40.00
2019-06-07T21:35:10.211Z,40.10
2019-06-07T21:37:42.105Z,40.30
2019-06-07T21:40:15.001Z,40.30
2019-06-07T21:42:46.723Z,40.30
2019-06-07T21:45:18.560Z,40.60
2019-06-07T21:47:50.246Z,40.60
2019-06-07T21:50:22.242Z,40.60
2019-06-07T21:52:53.899Z,40.70
2019-06-07T21:55:25.701Z,40.80
2019-06-07T21:57:57.429Z,40.90
2019-06-07T22:01:24.807Z,40.90
2019-06-07T22:03:56.574Z,41.10
2019-06-07T22:06:28.488Z,41.10
2019-06-07T22:09:00.357Z,41.70
2019-06-07T22:11:32.164Z,41.10
2019-06-07T22:14:04.202Z,41.10
2019-06-07T22:16:36.232Z,41.10
2019-06-07T22:19:08.661Z,41.20
2019-06-07T22:21:40.542Z,41.40
2019-06-07T22:24:13.109Z,41.40
2019-06-07T22:26:44.923Z,41.50
2019-06-07T22:29:16.648Z,41.60
2019-06-07T22:31:48.376Z,41.60
2019-06-07T22:34:20.151Z,41.70
2019-06-07T22:36:51.899Z,41.60
2019-06-07T22:39:23.725Z,41.70
2019-06-07T22:41:55.606Z,41.80
2019-06-07T22:44:27.438Z,41.90
2019-06-07T22:46:59.101Z,41.80
2019-06-07T22:49:30.833Z,41.80
2019-06-07T22:52:08.711Z,41.90
2019-06-07T22:54:35.985Z,41.90
2019-06-07T22:57:19.140Z,41.90
2019-06-07T22:59:50.989Z,42.00
2019-06-07T23:02:22.812Z,41.90
2019-06-07T23:04:54.814Z,41.90
2019-06-07T23:07:26.621Z,41.90
2019-06-07T23:09:58.331Z,41.90
2019-06-07T23:12:30.153Z,42.10
2019-06-07T23:15:02.230Z,42.10
2019-06-07T23:17:34.269Z,42.10
2019-06-07T23:20:06.192Z,42.10
2019-06-07T23:22:38.123Z,42.30
2019-06-07T23:25:12.293Z,42.40
2019-06-07T23:27:44.087Z,42.30
2019-06-07T23:30:16.727Z,42.30
2019-06-07T23:32:52.720Z,42.40
2019-06-07T23:35:24.488Z,42.40
2019-06-07T23:37:56.226Z,42.30
2019-06-07T23:40:28.022Z,42.40
2019-06-07T23:42:59.723Z,42.30
2019-06-07T23:45:31.519Z,42.30
2019-06-07T23:48:05.041Z,42.30
2019-06-07T23:50:36.924Z,42.40
2019-06-07T23:53:08.716Z,42.50
2019-06-07T23:55:40.437Z,42.50
2019-06-07T23:58:12.184Z,42.60
